Flight Track Log - Related Links

Times and Time Zones

All times are in EDT time to prevent confusion due to time zone crossing. See the N516QS flight status page for this flight to view local times or setup timezone preferences in your user account.

Time Position Orientation Groundspeed Altitude Reporting Facility
EDT Latitude Longitude Course Direction KTS MPH feet Rate Location/Type
Tue 07:22:45 AM 44.8833 -63.5167 270° West 190 219 2,000  Level Moncton Center
Tue 07:23:45 AM 44.8833 -63.6167 270° West 260 299 6,300 4,200 Climbing Moncton Center
Tue 07:24:45 AM 44.8833 -63.7333 270° West 270 311 10,400 3,350 Climbing Moncton Center
Tue 07:25:45 AM 44.8833 -63.8500 270° West 340 391 13,000 3,100 Climbing Moncton Center
Tue 07:26:45 AM 44.8833 -64.0000 270° West 350 403 16,600 3,350 Climbing Moncton Center
Tue 07:27:45 AM 44.8833 -64.1333 270° West 360 414 19,700 2,950 Climbing Moncton Center
Tue 07:28:00 AM 44.9167 -64.4148 270° West  Level FlightAware Approximate
Tue 07:28:45 AM 44.8833 -64.3000 270° West 370 426 22,500  Level Moncton Center
Tue 07:29:45 AM 44.8833 -64.4500 270° West 390 449 24,900 2,350 Climbing Moncton Center
Tue 07:30:45 AM 44.8833 -64.6167 270° West 400 460 27,200 2,250 Climbing Moncton Center
Tue 07:31:45 AM 44.8833 -64.7667 270° West 410 472 29,400 2,150 Climbing Moncton Center
Tue 07:32:45 AM 44.8833 -64.9333 270° West 430 495 31,500 2,400 Climbing Moncton Center
Tue 07:33:45 AM 44.9000 -65.1000 278° West 430 495 34,200 2,400 Climbing Moncton Center
Tue 07:34:45 AM 44.9000 -65.2667 270° West 420 483 36,300 2,200 Climbing Moncton Center
Tue 07:35:45 AM 44.9000 -65.4333 270° West 420 483 38,600 2,000 Climbing Moncton Center
Tue 07:36:45 AM 44.9000 -65.6000 270° West 420 483 40,300 1,750 Climbing Moncton Center
Tue 07:37:45 AM 44.9000 -65.7667 270° West 410 472 42,100 1,350 Climbing Moncton Center
Tue 07:38:45 AM 44.9000 -65.9333 270° West 410 472 43,000 450 Climbing Moncton Center
Tue 07:39:45 AM 44.9000 -66.1000 270° West 420 483 43,000  Level Moncton Center
Tue 07:40:45 AM 44.8833 -66.2667 262° West 440 506 43,000  Level Moncton Center
Tue 07:41:45 AM 44.8833 -66.4500 270° West 450 518 43,000  Level Moncton Center
Tue 07:42:45 AM 44.9000 -66.6167 278° West 440 506 43,000  Level Moncton Center
Tue 07:43:45 AM 44.9167 -66.7833 278° West 440 506 43,000  Level Moncton Center
Tue 07:44:45 AM 44.9500 -66.9500 286° West 440 506 43,000  Level Moncton Center
Tue 07:45:45 AM 44.9667 -67.1167 278° West 440 506 43,000  Level Moncton Center
Tue 07:46:45 AM 45.0000 -67.2833 286° West 440 506 43,000  Level Moncton Center
Tue 07:47:45 AM 45.0333 -67.4500 286° West 440 506 43,000  Level Moncton Center
Tue 07:48:45 AM 45.0667 -67.6333 284° West 440 506 43,000  Level Moncton Center
Tue 07:49:45 AM 45.0667 -67.8000 270° West 440 506 43,000  Level Moncton Center
Tue 07:50:45 AM 45.1000 -67.9833 285° West 440 506 43,000  Level Moncton Center
Tue 07:51:45 AM 45.1333 -68.1500 286° West 450 518 43,000  Level Moncton Center
Tue 07:52:45 AM 45.1500 -68.3167 278° West 450 518 43,000  Level Moncton Center
Tue 07:53:45 AM 45.1833 -68.4833 286° West 450 518 43,000  Level Moncton Center
Tue 07:54:45 AM 45.2167 -68.6500 286° West 450 518 43,000  Level Moncton Center
Tue 07:55:45 AM 45.2333 -68.8333 277° West 450 518 43,000  Level Moncton Center
Tue 07:56:45 AM 45.2500 -69.0000 278° West 450 518 43,000  Level Moncton Center
Tue 07:57:45 AM 45.2667 -69.1833 277° West 450 518 43,000  Level Moncton Center
Tue 07:58:45 AM 45.3000 -69.3500 286° West 450 518 43,000  Level Moncton Center
Tue 07:59:45 AM 45.3167 -69.5333 277° West 440 506 43,000  Level Moncton Center
Tue 08:00:45 AM 45.3500 -69.6833 288° West 440 506 43,000  Level Moncton Center
Tue 08:01:45 AM 45.3667 -69.8500 278° West 440 506 43,000 250 Level Moncton Center
Tue 08:02:45 AM 45.4000 -70.0500 283° West 450 518 43,500 500 Climbing Moncton Center
Tue 08:03:45 AM 45.4167 -70.2167 278° West 450 518 44,000 600 Climbing Moncton Center
Tue 08:04:45 AM 45.4500 -70.3833 286° West 450 518 44,700 500 Climbing Moncton Center
Tue 08:05:45 AM 45.4500 -70.5833 270° West 450 518 45,000 150 Climbing Moncton Center
Tue 08:06:45 AM 45.4833 -70.7500 286° West 450 518 45,000  Level Moncton Center
Tue 08:07:45 AM 45.5000 -70.9167 278° West 450 518 45,000  Level Moncton Center
Tue 08:08:45 AM 45.5167 -71.0833 278° West 460 529 45,000  Level Moncton Center
Tue 08:09:45 AM 45.5500 -71.2833 283° West 450 518 45,000  Level Moncton Center
Tue 08:10:45 AM 45.5667 -71.4500 278° West 450 518 45,000  Level Moncton Center
Tue 08:11:45 AM 45.5833 -71.6500 277° West 450 518 45,000  Level Moncton Center
Tue 08:12:45 AM 45.6167 -71.8167 286° West 450 518 45,000 100 Level Moncton Center
Tue 08:13:45 AM 45.6333 -71.9833 278° West 450 518 45,200 300 Climbing Moncton Center
Tue 08:14:45 AM 45.6500 -72.1667 277° West 450 518 45,600 400 Climbing Moncton Center
Tue 08:15:45 AM 45.6667 -72.3333 278° West 460 529 46,000 400 Climbing Moncton Center
Tue 08:16:45 AM 45.6833 -72.5167 277° West 450 518 46,400 400 Climbing Moncton Center
Tue 08:17:45 AM 45.7000 -72.7000 277° West 450 518 46,800 300 Climbing Moncton Center
Tue 08:18:45 AM 45.7167 -72.8833 277° West 450 518 47,000 100 Climbing Moncton Center
Tue 08:19:45 AM 45.7333 -73.0667 277° West 450 518 47,000  Level Moncton Center
Tue 08:20:45 AM 45.7667 -73.2333 286° West 460 529 47,000  Level Moncton Center
Tue 08:21:45 AM 45.7833 -73.4000 278° West 460 529 47,000  Level Moncton Center
Tue 08:22:45 AM 45.8000 -73.6000 277° West 450 518 47,000  Level Moncton Center
Tue 08:23:45 AM 45.8167 -73.7667 278° West 450 518 47,000  Level Moncton Center
Tue 08:24:45 AM 45.8333 -73.9500 277° West 450 518 47,000  Level Moncton Center
Tue 08:25:24 AM 45.8500 -74.0000 296° West 470 541 47,000  Level Toronto Center
Tue 08:26:24 AM 45.8667 -74.2000 277° West 450 518 47,000  Level Toronto Center
Tue 08:27:24 AM 45.8833 -74.3667 278° West 450 518 47,000  Level Toronto Center
Tue 08:28:24 AM 45.9000 -74.5500 278° West 450 518 47,000  Level Toronto Center
Tue 08:29:24 AM 45.9167 -74.7167 278° West 450 518 47,000  Level Toronto Center
Tue 08:30:24 AM 45.9333 -74.9000 278° West 450 518 47,000  Level Toronto Center
Tue 08:31:24 AM 45.9333 -75.0833 270° West 450 518 47,000  Level Toronto Center
Tue 08:32:24 AM 45.9667 -75.2667 285° West 450 518 47,000  Level Toronto Center
Tue 08:33:24 AM 45.9667 -75.4333 270° West 450 518 47,000  Level Toronto Center
Tue 08:34:24 AM 46.0000 -75.6000 286° West 450 518 47,000  Level Toronto Center
Tue 08:35:24 AM 46.0167 -75.7833 278° West 460 529 47,000  Level Toronto Center
Tue 08:36:24 AM 46.0167 -75.9833 270° West 450 518 47,000  Level Toronto Center
Tue 08:37:24 AM 46.0500 -76.1500 286° West 460 529 47,000  Level Toronto Center
Tue 08:38:24 AM 46.0500 -76.3333 270° West 450 518 47,000  Level Toronto Center
Tue 08:39:24 AM 46.0667 -76.5333 277° West 460 529 47,000  Level Toronto Center
Tue 08:40:24 AM 46.0833 -76.7000 278° West 460 529 47,000  Level Toronto Center
Tue 08:41:24 AM 46.1000 -76.8833 278° West 460 529 47,000  Level Toronto Center
Tue 08:42:24 AM 46.1000 -77.0667 270° West 460 529 47,000  Level Toronto Center
Tue 08:43:24 AM 46.1167 -77.2500 278° West 460 529 47,000  Level Toronto Center
Tue 08:44:24 AM 46.1333 -77.4167 278° West 460 529 47,000  Level Toronto Center
Tue 08:45:24 AM 46.1500 -77.6167 277° West 460 529 47,000  Level Toronto Center
Tue 08:46:24 AM 46.1500 -77.8000 270° West 460 529 47,000  Level Toronto Center
Tue 08:47:24 AM 46.1667 -77.9667 278° West 460 529 47,000  Level Toronto Center
Tue 08:48:24 AM 46.1833 -78.1667 277° West 460 529 47,000  Level Toronto Center
Tue 08:49:24 AM 46.1833 -78.3333 270° West 460 529 47,000  Level Toronto Center
Tue 08:50:24 AM 46.2167 -78.5167 285° West 460 529 47,000  Level Toronto Center
Tue 08:51:24 AM 46.2167 -78.7167 270° West 460 529 47,000  Level Toronto Center
Tue 08:52:24 AM 46.2333 -78.8833 278° West 460 529 47,000  Level Toronto Center
Tue 08:53:24 AM 46.2333 -79.0833 270° West 470 541 47,000  Level Toronto Center
Tue 08:54:24 AM 46.2500 -79.2500 278° West 470 541 47,000  Level Toronto Center
Tue 08:55:24 AM 46.2500 -79.4333 270° West 460 529 47,000  Level Toronto Center
Tue 08:56:24 AM 46.2667 -79.6333 277° West 460 529 47,000  Level Toronto Center
Tue 08:57:24 AM 46.2667 -79.8000 270° West 470 541 47,000  Level Toronto Center
Tue 08:58:24 AM 46.2833 -80.0000 277° West 460 529 47,000  Level Toronto Center
Tue 08:59:24 AM 46.2833 -80.1833 270° West 460 529 47,000  Level Toronto Center
Tue 09:00:24 AM 46.3000 -80.3500 278° West 460 529 47,000  Level Toronto Center
Tue 09:01:24 AM 46.3167 -80.5500 277° West 460 529 47,000  Level Toronto Center
Tue 09:02:24 AM 46.3167 -80.7167 270° West 460 529 47,000  Level Toronto Center
Tue 09:03:24 AM 46.3167 -80.9167 270° West 460 529 47,000  Level Toronto Center
Tue 09:04:24 AM 46.3167 -81.1000 270° West 460 529 47,000  Level Toronto Center
Tue 09:05:24 AM 46.3333 -81.3000 277° West 460 529 47,000  Level Toronto Center
Tue 09:06:24 AM 46.3333 -81.4667 270° West 460 529 47,000  Level Toronto Center
Tue 09:07:24 AM 46.3500 -81.6667 277° West 460 529 47,000  Level Toronto Center
Tue 09:08:24 AM 46.3500 -81.8500 270° West 460 529 47,000  Level Toronto Center
Tue 09:09:24 AM 46.3500 -82.0500 270° West 460 529 47,000  Level Toronto Center
Tue 09:10:24 AM 46.3667 -82.2167 278° West 460 529 47,000  Level Toronto Center
Tue 09:11:24 AM 46.3667 -82.4167 270° West 470 541 47,000  Level Toronto Center
Tue 09:12:24 AM 46.3833 -82.6000 278° West 460 529 47,000  Level Toronto Center
Tue 09:13:24 AM 46.3667 -82.7667 262° West 460 529 47,000  Level Toronto Center
Tue 09:14:24 AM 46.3833 -82.9667 277° West 470 541 47,000  Level Toronto Center
Tue 09:15:24 AM 46.3833 -83.1667 270° West 470 541 47,000  Level Toronto Center
Tue 09:16:24 AM 46.3833 -83.3333 270° West 460 529 47,000  Level Toronto Center
Tue 09:17:24 AM 46.3833 -83.5167 270° West 460 529 47,000  Level Toronto Center
Tue 09:18:24 AM 46.4000 -83.7167 277° West 460 529 47,000  Level Toronto Center
Tue 09:19:24 AM 46.3833 -83.9167 263° West 460 529 47,000  Level Toronto Center
Tue 09:20:57 AM 46.4125 -84.1547 280° West 464 534 47,000  Level Minneapolis Center
Tue 09:22:11 AM 46.4189 -84.3769 272° West 463 533 47,000  Level Minneapolis Center
Tue 09:23:13 AM 46.4392 -84.5992 278° West 464 534 47,000  Level Minneapolis Center
Tue 09:24:15 AM 46.4533 -84.7803 277° West 457 526 47,000  Level Minneapolis Center
Tue 09:25:17 AM 46.4689 -84.9653 277° West 461 531 47,000  Level Minneapolis Center
Tue 09:26:19 AM 46.4878 -85.1883 277° West 466 536 47,000  Level Minneapolis Center
Tue 09:27:20 AM 46.5025 -85.3728 277° West 464 534 47,000  Level Minneapolis Center
Tue 09:28:22 AM 46.5164 -85.5575 276° West 464 534 47,000  Level Minneapolis Center
Tue 09:29:24 AM 46.5314 -85.7436 277° West 465 535 47,000  Level Minneapolis Center
Tue 09:30:26 AM 46.5450 -85.9292 276° West 465 535 47,000  Level Minneapolis Center
Tue 09:31:27 AM 46.5589 -86.1131 276° West 462 532 47,000  Level Minneapolis Center
Tue 09:32:29 AM 46.5742 -86.3350 276° West 462 532 47,000  Level Minneapolis Center
Tue 09:33:31 AM 46.5878 -86.5197 276° West 463 533 47,000  Level Minneapolis Center
Tue 09:34:45 AM 46.6006 -86.7050 276° West 464 534 47,000  Level Minneapolis Center
Tue 09:35:47 AM 46.6153 -86.9267 276° West 463 533 47,000  Level Minneapolis Center
Tue 09:36:49 AM 46.6275 -87.1142 275° West 466 536 47,000  Level Minneapolis Center
Tue 09:37:51 AM 46.6394 -87.3014 275° West 467 537 47,000  Level Minneapolis Center
Tue 09:38:53 AM 46.6528 -87.5239 275° West 464 534 47,000  Level Minneapolis Center
Tue 09:39:55 AM 46.6642 -87.7078 275° West 464 534 47,000 -290 Level Minneapolis Center
Tue 09:40:57 AM 46.6750 -87.8939 275° West 463 533 46,400 -1,366 Descending Minneapolis Center
Tue 09:41:58 AM 46.6856 -88.0775 275° West 458 527 44,200 -2,049 Descending Minneapolis Center
Tue 09:43:00 AM 46.6953 -88.2564 275° West 449 517 42,200 -2,129 Descending Minneapolis Center
Tue 09:44:02 AM 46.7069 -88.4717 275° West 447 514 39,800 -2,081 Descending Minneapolis Center
Tue 09:45:04 AM 46.7158 -88.6503 274° West 445 512 37,900 -1,887 Descending Minneapolis Center
Tue 09:46:06 AM 46.7250 -88.8328 274° West 453 521 35,900 -1,935 Descending Minneapolis Center
Tue 09:47:08 AM 46.7344 -89.0186 274° West 458 527 33,900 -1,935 Descending Minneapolis Center
Tue 09:48:10 AM 46.7428 -89.1992 274° West 452 520 31,900 -1,935 Descending Minneapolis Center
Tue 09:49:12 AM 46.7497 -89.3808 273° West 453 521 29,900 -2,049 Descending Minneapolis Center
Tue 09:50:13 AM 46.7594 -89.5881 274° West 430 495 27,700 -1,951 Descending Minneapolis Center
Tue 09:51:15 AM 46.7644 -89.7550 273° West 415 478 25,900 -1,742 Descending Minneapolis Center
Tue 09:52:17 AM 46.7714 -89.9139 274° West 399 459 24,100 -1,500 Descending Minneapolis Center
Tue 09:53:19 AM 46.7758 -90.0381 273° West 388 447 22,800 -1,597 Descending Minneapolis Center
Tue 09:54:21 AM 46.7833 -90.2203 274° West 378 435 20,800 -1,790 Descending Minneapolis Center
Tue 09:55:23 AM 46.7889 -90.3708 273° West 373 429 19,100 -1,500 Descending Minneapolis Center
Tue 09:56:37 AM 46.7950 -90.5450 273° West 358 412 17,400 -1,676 Descending Minneapolis Center
Tue 09:57:39 AM 46.8011 -90.7133 273° West 346 398 15,300 -1,742 Descending Minneapolis Center
Tue 09:58:41 AM 46.8047 -90.8494 272° West 338 389 13,800 -1,403 Descending Minneapolis Center
Tue 09:59:43 AM 46.8097 -90.9842 273° West 334 384 12,400 -1,317 Descending Minneapolis Center
Tue 10:00:44 AM 46.8083 -91.1039 269° West 312 359 11,100 -1,171 Descending Minneapolis Center
Tue 10:01:46 AM 46.8122 -91.2108 273° West 289 333 10,000 -1,210 Descending Minneapolis Center
Tue 10:02:48 AM 46.8178 -91.3394 274° West 274 315 8,600 -1,258 Descending Minneapolis Center
Tue 10:03:50 AM 46.8211 -91.4425 273° West 265 305 7,400 -919 Descending Minneapolis Center
Tue 10:04:52 AM 46.8236 -91.5322 272° West 261 300 6,700 -677 Descending Minneapolis Center
Tue 10:06:00 AM 46.7834 -91.7292 270° West  Level FlightAware Approximate
Tue 10:13:00 AM 46.8333 -92.1833 19° North  Level FlightAware Approximate
Tue 10:14:00 AM 46.8421 -92.1936 19° North  Level Estimated
Tue 10:15:00 AM 46.8421 -92.1936 19° North  Level Estimated
Tue 10:16:00 AM 46.8421 -92.1936 19° North  Level Estimated
Tue 10:17:00 AM 46.8421 -92.1936 19° North  Level Estimated
Tue 10:18:00 AM 46.8421 -92.1936 19° North  Level Estimated
Tue 10:19:00 AM 46.8421 -92.1936 19° North  Level Estimated
Tue 10:20:00 AM 46.8421 -92.1936 19° North  Level Estimated
Tue 10:21:00 AM 46.8421 -92.1936 19° North  Level Estimated

Login

Don't have an account? Register now (free) for customized features, flight alerts, and more!